createdAt,value
2018-10-17T00:45:59.930Z,14.94
2018-10-17T00:51:03.253Z,14.92
2018-10-17T00:56:06.581Z,14.75
2018-10-17T02:33:12.159Z,13.90
2018-10-17T02:38:15.482Z,13.95
2018-10-17T02:43:18.879Z,13.97
2018-10-17T03:45:54.587Z,13.05
2018-10-17T03:50:57.917Z,13.13
2018-10-17T03:56:02.012Z,13.18
2018-10-17T04:35:36.528Z,13.04
2018-10-17T04:40:39.854Z,13.07
2018-10-17T04:45:43.187Z,13.06
2018-10-17T04:50:47.284Z,13.10
2018-10-17T04:55:50.626Z,13.11
2018-10-17T05:00:53.994Z,13.10
2018-10-17T05:05:57.302Z,13.06
2018-10-17T05:11:00.644Z,13.07
2018-10-17T05:16:03.972Z,13.08
2018-10-17T05:21:08.064Z,13.03
2018-10-17T05:26:11.391Z,13.02
2018-10-17T05:31:14.870Z,12.96
2018-10-17T05:36:24.051Z,12.86
2018-10-17T05:41:27.374Z,12.84
2018-10-17T05:46:30.690Z,12.78
2018-10-17T05:51:34.019Z,12.64
2018-10-17T05:56:37.352Z,12.61
2018-10-17T06:01:40.719Z,12.65
2018-10-17T06:06:44.037Z,12.66
2018-10-17T06:11:47.377Z,12.67
2018-10-17T06:16:51.495Z,12.70
2018-10-17T06:21:54.833Z,12.76
2018-10-17T06:26:58.158Z,12.88
2018-10-17T07:00:55.737Z,14.04
2018-10-17T07:05:59.115Z,13.98
2018-10-17T07:11:02.811Z,14.11
2018-10-17T08:02:07.283Z,15.16
2018-10-17T08:07:10.618Z,15.32
2018-10-17T08:12:14.060Z,15.41
2018-10-17T09:03:18.029Z,16.59
2018-10-17T09:08:21.401Z,16.62
2018-10-17T09:13:24.725Z,16.83
2018-10-17T10:04:30.456Z,17.84
2018-10-17T10:09:33.792Z,17.73
2018-10-17T10:14:37.126Z,17.88
2018-10-17T11:05:42.163Z,18.95
2018-10-17T11:10:45.401Z,19.16
2018-10-17T12:01:50.387Z,21.33
2018-10-17T12:06:53.715Z,21.47
2018-10-17T12:11:57.128Z,21.54
2018-10-17T13:03:02.367Z,23.60
2018-10-17T13:08:06.499Z,24.83
2018-10-17T13:13:09.856Z,25.33
2018-10-17T14:04:14.163Z,28.23
2018-10-17T14:09:17.597Z,28.34
2018-10-17T14:14:21.610Z,28.51
2018-10-17T14:48:11.040Z,29.17
2018-10-17T14:53:14.532Z,29.10
2018-10-17T14:58:20.544Z,29.06
2018-10-17T15:32:09.242Z,28.42
2018-10-17T15:37:12.573Z,28.15
2018-10-17T15:42:15.917Z,27.60
2018-10-17T15:47:19.247Z,27.28
2018-10-17T15:52:22.583Z,26.57
2018-10-17T15:57:25.910Z,25.71
2018-10-17T16:02:29.278Z,24.90
2018-10-17T16:07:33.352Z,24.26
2018-10-17T16:12:36.694Z,23.75
2018-10-17T16:17:42.726Z,23.40
2018-10-17T16:22:46.157Z,23.05
2018-10-17T16:28:09.379Z,22.78
2018-10-17T16:33:12.997Z,22.57
2018-10-17T16:38:20.542Z,22.31
2018-10-17T16:43:23.879Z,22.14
2018-10-17T16:48:27.210Z,22.20
2018-10-17T16:53:30.541Z,22.09
2018-10-17T16:58:33.969Z,22.00
2018-10-17T17:03:37.242Z,21.86
2018-10-17T17:08:40.579Z,21.90
2018-10-17T17:13:44.695Z,21.81
2018-10-17T17:18:48.024Z,21.74
2018-10-17T17:23:52.177Z,21.73
2018-10-17T17:28:55.483Z,21.76
2018-10-17T17:33:58.817Z,21.72
2018-10-17T17:39:02.150Z,21.64
2018-10-17T17:44:05.483Z,21.47
2018-10-17T17:49:08.815Z,21.38
2018-10-17T17:54:12.931Z,21.25
2018-10-17T17:59:17.019Z,21.18
2018-10-17T18:04:21.980Z,21.01
2018-10-17T18:09:25.327Z,20.87
2018-10-17T18:14:29.445Z,20.88
2018-10-17T18:19:32.788Z,20.82
2018-10-17T18:24:36.135Z,20.74
2018-10-17T18:29:39.472Z,20.55
2018-10-17T18:34:42.816Z,20.50
2018-10-17T18:39:46.167Z,20.32
2018-10-17T18:44:49.557Z,20.06
2018-10-17T18:49:52.902Z,19.95
2018-10-17T18:54:56.248Z,19.74
2018-10-17T18:59:59.632Z,19.66
2018-10-17T19:05:02.973Z,19.39
2018-10-17T19:10:06.316Z,19.29
2018-10-17T19:15:09.684Z,19.31
2018-10-17T19:20:13.016Z,19.17
2018-10-17T19:25:16.389Z,19.12
2018-10-17T19:30:20.455Z,19.08
2018-10-17T19:35:23.794Z,19.08
2018-10-17T19:40:27.123Z,19.03
2018-10-17T19:45:30.480Z,18.91
2018-10-17T19:50:33.822Z,18.77
2018-10-17T19:55:37.924Z,18.67
2018-10-17T20:00:41.267Z,18.47
2018-10-17T20:05:45.372Z,18.38
2018-10-17T20:10:48.706Z,18.27
2018-10-17T20:15:52.801Z,18.11
2018-10-17T20:20:56.150Z,18.08
2018-10-17T20:26:00.315Z,17.92
2018-10-17T20:31:03.658Z,17.89
2018-10-17T20:36:06.989Z,17.78
2018-10-17T20:41:10.331Z,17.74
2018-10-17T20:46:14.426Z,17.66
2018-10-17T20:51:17.781Z,17.54
2018-10-17T20:56:21.947Z,17.51
2018-10-17T21:01:25.990Z,17.45
2018-10-17T21:06:29.327Z,17.32
2018-10-17T21:11:34.358Z,17.22
2018-10-17T21:16:37.543Z,17.04
2018-10-17T21:21:40.880Z,16.95
2018-10-17T21:26:44.240Z,16.87
2018-10-17T21:31:48.327Z,16.66
2018-10-17T21:36:51.670Z,16.51
2018-10-17T21:41:55.786Z,16.46
2018-10-17T21:46:59.147Z,16.36
2018-10-17T21:52:02.478Z,16.29
2018-10-17T21:57:05.808Z,16.17
2018-10-17T22:02:09.250Z,16.18
2018-10-17T22:07:12.519Z,16.10
2018-10-17T22:12:15.846Z,16.08
2018-10-17T22:17:21.110Z,15.94
2018-10-17T22:22:24.454Z,15.79
2018-10-17T22:27:28.547Z,15.59
2018-10-17T22:32:31.882Z,15.57
2018-10-17T22:37:35.217Z,15.58
2018-10-17T22:42:39.307Z,15.64
2018-10-17T22:47:42.650Z,15.60
2018-10-17T22:52:45.996Z,15.58
2018-10-17T22:57:49.343Z,15.59
2018-10-17T23:02:53.035Z,15.54
2018-10-17T23:08:22.211Z,15.48
2018-10-17T23:13:26.319Z,15.40
